createdAt,value
2023-01-25T00:00:16.274Z,17.85
2023-01-25T00:03:04.546Z,16.63
2023-01-25T00:05:59.199Z,17.20
2023-01-25T00:08:27.633Z,19.50
2023-01-25T00:10:58.258Z,20.73
2023-01-25T00:13:27.273Z,20.02
2023-01-25T00:16:02.299Z,20.42
2023-01-25T00:18:31.132Z,22.00
2023-01-25T00:20:59.824Z,18.92
2023-01-25T00:23:28.857Z,20.15
2023-01-25T00:26:00.421Z,20.23
2023-01-25T00:28:28.953Z,19.95
2023-01-25T00:31:01.615Z,17.67
2023-01-25T00:33:43.277Z,17.23
2023-01-25T00:36:34.816Z,18.30
2023-01-25T00:39:03.171Z,17.75
2023-01-25T00:41:31.919Z,17.35
2023-01-25T00:44:00.322Z,15.73
2023-01-25T00:46:29.118Z,15.32
2023-01-25T00:48:57.822Z,17.48
2023-01-25T00:51:26.736Z,16.80
2023-01-25T00:53:55.188Z,15.68
2023-01-25T00:56:24.104Z,13.52
2023-01-25T00:58:52.530Z,12.68
2023-01-25T01:01:21.715Z,15.40
2023-01-25T01:03:52.110Z,16.77
2023-01-25T01:06:20.758Z,17.27
2023-01-25T01:09:05.568Z,15.82
2023-01-25T01:11:34.307Z,15.38
2023-01-25T01:14:02.744Z,15.60
2023-01-25T01:16:33.513Z,15.73
2023-01-25T01:19:02.092Z,13.45
2023-01-25T01:21:34.534Z,13.77
2023-01-25T01:24:03.303Z,12.90
2023-01-25T01:26:32.180Z,10.95
2023-01-25T01:29:00.776Z,13.35
2023-01-25T01:31:29.753Z,14.23
2023-01-25T01:34:13.598Z,12.25
2023-01-25T01:36:42.880Z,16.25
2023-01-25T01:39:11.638Z,14.85
2023-01-25T01:41:40.732Z,14.98
2023-01-25T01:44:41.548Z,15.93
2023-01-25T01:47:17.819Z,15.30
2023-01-25T01:49:53.173Z,13.05
2023-01-25T01:52:29.573Z,13.73
2023-01-25T01:55:18.191Z,14.20
2023-01-25T01:57:50.220Z,14.57
2023-01-25T02:00:23.480Z,13.77
2023-01-25T02:02:53.209Z,12.43
2023-01-25T02:05:40.877Z,13.43
2023-01-25T02:08:12.417Z,13.52
2023-01-25T02:10:42.513Z,11.48
2023-01-25T02:13:12.184Z,13.32
2023-01-25T02:15:46.369Z,14.05
2023-01-25T02:18:16.045Z,11.82
2023-01-25T02:20:47.318Z,11.40
2023-01-25T02:23:41.300Z,13.40
2023-01-25T02:26:11.499Z,12.15
2023-01-25T02:28:51.746Z,10.40
2023-01-25T02:31:22.278Z,9.10
2023-01-25T02:33:51.041Z,10.63
2023-01-25T02:36:29.604Z,12.60
2023-01-25T02:39:13.498Z,11.65
2023-01-25T02:41:46.881Z,9.93
2023-01-25T02:44:25.604Z,8.13
2023-01-25T02:46:54.142Z,11.68
2023-01-25T02:49:22.825Z,12.13
2023-01-25T02:52:00.536Z,13.45
2023-01-25T02:54:29.537Z,8.75
2023-01-25T02:56:58.538Z,11.65
2023-01-25T02:59:31.272Z,11.07
2023-01-25T03:02:02.478Z,11.48
2023-01-25T03:04:32.767Z,9.88
2023-01-25T03:07:01.458Z,11.35
2023-01-25T03:09:30.215Z,11.95
2023-01-25T03:11:58.490Z,10.00
2023-01-25T03:14:27.333Z,11.07
2023-01-25T03:16:55.802Z,10.27
2023-01-25T03:19:27.296Z,10.85
2023-01-25T03:21:55.694Z,11.85
2023-01-25T03:24:25.383Z,11.13
2023-01-25T03:27:13.355Z,11.57
2023-01-25T03:30:00.192Z,11.45
2023-01-25T03:32:32.358Z,11.95
2023-01-25T03:35:06.882Z,10.57
2023-01-25T03:37:35.433Z,10.93
2023-01-25T03:40:05.991Z,7.07
2023-01-25T03:42:34.870Z,9.73
2023-01-25T03:45:05.763Z,10.50
2023-01-25T03:47:34.145Z,9.43
2023-01-25T03:50:02.761Z,9.98
2023-01-25T03:52:38.344Z,9.60
2023-01-25T03:55:11.319Z,9.63
2023-01-25T03:57:43.089Z,6.05
2023-01-25T04:00:15.312Z,9.55
2023-01-25T04:02:43.606Z,9.07
2023-01-25T04:05:16.231Z,9.43
2023-01-25T04:07:44.560Z,7.32
2023-01-25T04:10:13.307Z,7.65
2023-01-25T04:12:45.677Z,3.10
2023-01-25T04:15:14.702Z,9.82
2023-01-25T04:17:44.948Z,10.23
2023-01-25T04:20:20.397Z,11.10
2023-01-25T04:22:48.750Z,10.65
2023-01-25T04:25:20.045Z,9.15
2023-01-25T04:27:54.512Z,10.32
2023-01-25T04:30:23.172Z,10.18
2023-01-25T04:32:52.322Z,9.85
2023-01-25T04:35:31.709Z,9.15
2023-01-25T04:38:03.080Z,9.45
2023-01-25T04:40:57.930Z,9.45
2023-01-25T04:43:31.713Z,10.25
2023-01-25T04:46:08.609Z,9.20
2023-01-25T04:48:40.838Z,9.30
2023-01-25T04:51:13.419Z,9.73
2023-01-25T04:54:15.776Z,9.30
2023-01-25T04:56:46.681Z,9.57
2023-01-25T04:59:15.856Z,10.35
2023-01-25T05:02:32.548Z,8.30
2023-01-25T05:05:05.222Z,8.38
2023-01-25T05:07:41.555Z,9.50
2023-01-25T05:10:31.089Z,9.27
2023-01-25T05:13:58.134Z,9.38
2023-01-25T05:16:40.548Z,10.05
2023-01-25T05:19:12.345Z,9.43
2023-01-25T05:21:58.319Z,10.18
2023-01-25T05:24:34.756Z,11.10
2023-01-25T05:27:11.300Z,11.77
2023-01-25T05:30:16.141Z,11.15
2023-01-25T05:33:08.641Z,11.35
2023-01-25T05:35:36.990Z,10.10
2023-01-25T05:38:07.166Z,10.15
2023-01-25T05:40:35.556Z,10.25
2023-01-25T05:43:04.252Z,10.50
2023-01-25T05:45:54.024Z,11.88
2023-01-25T05:48:23.121Z,11.23
2023-01-25T05:50:51.721Z,11.55
2023-01-25T05:53:32.540Z,11.63
2023-01-25T05:56:05.956Z,10.57
2023-01-25T05:58:35.327Z,9.63
2023-01-25T06:01:06.410Z,10.65
2023-01-25T06:03:46.486Z,9.55
2023-01-25T06:06:15.421Z,10.05
2023-01-25T06:08:45.139Z,9.60
2023-01-25T06:11:31.842Z,10.07
2023-01-25T06:14:00.817Z,9.55
2023-01-25T06:16:29.339Z,11.07
2023-01-25T06:19:20.822Z,11.98
2023-01-25T06:22:18.472Z,8.48
2023-01-25T06:24:47.688Z,8.45
2023-01-25T06:27:16.019Z,9.75
2023-01-25T06:29:44.801Z,8.52
2023-01-25T06:32:13.281Z,7.40
2023-01-25T06:34:42.330Z,7.80
2023-01-25T06:37:17.722Z,7.90
2023-01-25T06:39:46.261Z,8.82
2023-01-25T06:42:14.569Z,7.22
2023-01-25T06:44:43.294Z,8.70
2023-01-25T06:47:12.647Z,8.60
2023-01-25T06:49:41.517Z,7.88
2023-01-25T06:52:09.877Z,7.57
2023-01-25T06:54:38.410Z,7.28
2023-01-25T06:57:16.036Z,8.70
2023-01-25T06:59:52.434Z,8.15
2023-01-25T07:02:20.848Z,7.53
2023-01-25T07:04:49.766Z,7.85
2023-01-25T07:07:18.561Z,7.82
2023-01-25T07:09:47.347Z,7.53
2023-01-25T07:12:15.792Z,7.45
2023-01-25T07:14:44.644Z,8.30
2023-01-25T07:17:16.414Z,8.20
2023-01-25T07:19:45.030Z,9.13
2023-01-25T07:22:13.301Z,8.35
2023-01-25T07:24:42.079Z,9.63
2023-01-25T07:27:13.934Z,8.98
2023-01-25T07:29:43.323Z,9.95
2023-01-25T07:32:14.797Z,9.43
2023-01-25T07:37:12.020Z,8.60
2023-01-25T07:39:47.758Z,9.48
2023-01-25T07:42:16.273Z,10.32
2023-01-25T07:44:53.279Z,9.30
2023-01-25T07:47:21.605Z,9.48
2023-01-25T07:50:08.578Z,8.77
2023-01-25T07:52:37.229Z,9.40
2023-01-25T07:55:06.274Z,9.45
2023-01-25T07:57:34.982Z,9.30
2023-01-25T08:00:04.420Z,10.15
2023-01-25T08:02:41.276Z,9.32
2023-01-25T08:05:11.214Z,9.73
2023-01-25T08:07:40.172Z,10.07
2023-01-25T08:10:09.189Z,9.25
2023-01-25T08:12:38.332Z,9.10
2023-01-25T08:15:07.743Z,9.40
2023-01-25T08:17:36.609Z,9.15
2023-01-25T08:20:06.292Z,9.75
2023-01-25T08:22:35.091Z,8.45
2023-01-25T08:25:04.582Z,9.38
2023-01-25T08:27:33.203Z,8.90
2023-01-25T08:30:02.272Z,9.50
2023-01-25T08:32:30.841Z,9.13
2023-01-25T08:34:59.129Z,9.93
2023-01-25T08:37:29.813Z,9.25
2023-01-25T08:39:59.975Z,10.32
2023-01-25T08:42:28.695Z,10.38
2023-01-25T08:44:57.116Z,10.18
2023-01-25T08:47:26.827Z,10.50
2023-01-25T08:49:55.471Z,10.80
2023-01-25T08:52:24.033Z,11.40
2023-01-25T08:54:52.450Z,11.18
2023-01-25T08:57:21.043Z,12.40
2023-01-25T08:59:49.305Z,9.13
2023-01-25T09:02:19.729Z,9.32
2023-01-25T09:04:48.127Z,10.80
2023-01-25T09:07:16.734Z,12.32
2023-01-25T09:09:45.008Z,10.95
2023-01-25T09:12:13.725Z,10.68
2023-01-25T09:14:42.190Z,12.73
2023-01-25T09:17:10.938Z,10.27
2023-01-25T09:19:39.336Z,10.68
2023-01-25T09:22:08.364Z,10.48
2023-01-25T09:24:37.411Z,11.32
2023-01-25T09:27:06.092Z,10.32
2023-01-25T09:29:34.601Z,10.77
2023-01-25T09:32:03.592Z,9.93
2023-01-25T09:34:38.643Z,11.60
2023-01-25T09:37:07.381Z,11.45
2023-01-25T09:39:35.724Z,10.68
2023-01-25T09:42:14.895Z,10.57
2023-01-25T09:45:08.021Z,11.50
2023-01-25T09:47:51.342Z,10.93
2023-01-25T09:50:25.617Z,9.13
2023-01-25T09:53:06.482Z,10.57
2023-01-25T09:55:36.182Z,10.88
2023-01-25T09:58:05.597Z,11.48
2023-01-25T10:00:38.668Z,11.07
2023-01-25T10:03:53.525Z,12.50
2023-01-25T10:06:36.448Z,7.07
2023-01-25T10:09:38.641Z,11.30
2023-01-25T10:12:18.829Z,12.45
2023-01-25T10:14:48.973Z,12.45
2023-01-25T10:17:25.950Z,15.18
2023-01-25T10:20:24.327Z,13.48
2023-01-25T10:23:39.563Z,13.63
2023-01-25T10:26:38.986Z,11.73
2023-01-25T10:29:19.701Z,9.25
2023-01-25T10:31:56.698Z,12.38
2023-01-25T10:34:54.535Z,12.45
2023-01-25T10:37:30.973Z,11.20
2023-01-25T10:40:17.937Z,11.25
2023-01-25T10:43:02.511Z,10.82
2023-01-25T10:45:30.804Z,6.22
2023-01-25T10:48:03.709Z,8.98
2023-01-25T10:50:47.150Z,9.95
2023-01-25T10:53:44.507Z,5.80
2023-01-25T10:56:27.473Z,11.38
2023-01-25T10:59:17.549Z,8.75
2023-01-25T11:01:46.190Z,7.20
2023-01-25T11:04:32.801Z,13.20
2023-01-25T11:07:03.761Z,11.43
2023-01-25T11:09:38.070Z,11.30
2023-01-25T11:12:19.660Z,6.18
2023-01-25T11:14:50.197Z,12.57
2023-01-25T11:17:30.445Z,14.07
2023-01-25T11:20:25.551Z,13.68
2023-01-25T11:22:57.307Z,11.20
2023-01-25T11:28:25.518Z,14.60
2023-01-25T11:30:54.346Z,14.25
2023-01-25T11:33:23.096Z,14.63
2023-01-25T11:36:14.257Z,11.63
2023-01-25T11:38:59.010Z,10.57
2023-01-25T11:41:39.455Z,15.43
2023-01-25T11:44:38.254Z,15.13
2023-01-25T11:47:24.586Z,14.73
2023-01-25T11:50:30.070Z,11.13
2023-01-25T11:53:19.930Z,16.67
2023-01-25T11:56:06.435Z,15.93
2023-01-25T11:58:55.325Z,15.90
2023-01-25T12:01:33.494Z,16.30
2023-01-25T12:04:20.794Z,14.73
2023-01-25T12:07:04.049Z,17.48
2023-01-25T12:09:57.180Z,18.80
2023-01-25T12:12:31.341Z,15.13
2023-01-25T12:15:39.866Z,16.05
2023-01-25T12:18:34.979Z,17.10
2023-01-25T12:21:13.413Z,18.02
2023-01-25T12:24:11.323Z,18.02
2023-01-25T12:26:51.345Z,15.23
2023-01-25T12:30:03.620Z,16.80
2023-01-25T12:32:57.254Z,14.85
2023-01-25T12:35:47.209Z,17.77
2023-01-25T12:38:38.219Z,16.40
2023-01-25T12:41:19.176Z,16.90
2023-01-25T12:47:44.184Z,18.67
2023-01-25T12:50:20.593Z,18.45
2023-01-25T12:52:59.483Z,17.88
2023-01-25T12:55:28.746Z,12.68
2023-01-25T12:58:37.509Z,10.07
2023-01-25T13:01:27.755Z,15.77
2023-01-25T13:04:30.469Z,15.23
2023-01-25T13:07:27.110Z,15.35
2023-01-25T13:10:27.372Z,16.50
2023-01-25T13:13:00.902Z,17.40
2023-01-25T13:15:43.607Z,16.88
2023-01-25T13:18:24.914Z,19.27
2023-01-25T13:20:55.444Z,14.68
2023-01-25T13:23:46.047Z,19.83
2023-01-25T13:26:29.397Z,17.67
2023-01-25T13:29:01.773Z,20.38
2023-01-25T13:34:36.679Z,19.13
2023-01-25T13:37:20.295Z,18.77
2023-01-25T13:40:06.540Z,17.05
2023-01-25T13:42:37.694Z,16.25
2023-01-25T13:45:21.459Z,17.23
2023-01-25T13:48:10.929Z,17.30
2023-01-25T13:51:06.926Z,17.48
2023-01-25T13:53:46.984Z,15.45
2023-01-25T13:56:41.563Z,16.98
2023-01-25T13:59:54.357Z,19.42
2023-01-25T14:02:35.815Z,17.77
2023-01-25T14:05:36.425Z,18.75
2023-01-25T14:08:05.661Z,19.35
2023-01-25T14:10:35.396Z,17.50
2023-01-25T14:13:05.352Z,20.42
2023-01-25T14:15:33.961Z,22.13
2023-01-25T14:18:19.229Z,19.05
2023-01-25T14:20:51.770Z,18.63
2023-01-25T14:23:42.425Z,15.60
2023-01-25T14:26:28.904Z,16.13
2023-01-25T14:29:02.654Z,17.08
2023-01-25T14:31:37.623Z,16.90
2023-01-25T14:34:08.671Z,15.65
2023-01-25T14:36:37.160Z,17.85
2023-01-25T14:39:41.701Z,17.02
2023-01-25T14:42:10.766Z,18.10
2023-01-25T14:44:43.634Z,15.27
2023-01-25T14:47:34.355Z,18.77
2023-01-25T14:50:39.748Z,17.48
2023-01-25T14:53:20.156Z,16.58
2023-01-25T14:55:50.439Z,18.08
2023-01-25T14:58:24.500Z,17.90
2023-01-25T15:01:03.237Z,18.92
2023-01-25T15:03:32.256Z,18.63
2023-01-25T15:06:04.638Z,19.40
2023-01-25T15:08:41.098Z,15.82
2023-01-25T15:11:37.791Z,15.02
2023-01-25T15:14:17.431Z,19.42
2023-01-25T15:16:46.572Z,16.45
2023-01-25T15:19:26.976Z,18.27
2023-01-25T15:22:00.256Z,17.52
2023-01-25T15:24:58.577Z,20.50
2023-01-25T15:27:27.600Z,20.13
2023-01-25T15:29:59.453Z,20.30
2023-01-25T15:32:28.045Z,21.25
2023-01-25T15:34:56.773Z,15.25
2023-01-25T15:37:25.415Z,17.20
2023-01-25T15:39:53.746Z,17.83
2023-01-25T15:42:22.245Z,17.42
2023-01-25T15:44:50.625Z,17.90
2023-01-25T15:47:19.171Z,17.48
2023-01-25T15:49:49.916Z,19.85
2023-01-25T15:52:18.962Z,19.27
2023-01-25T15:54:56.031Z,19.77
2023-01-25T15:57:33.004Z,19.48
2023-01-25T16:00:02.394Z,20.10
2023-01-25T16:05:01.487Z,16.58
2023-01-25T16:07:38.883Z,19.35
2023-01-25T16:10:19.106Z,19.02
2023-01-25T16:12:48.095Z,19.75
2023-01-25T16:15:16.793Z,19.45
2023-01-25T16:17:46.259Z,21.13
2023-01-25T16:20:19.181Z,18.98
2023-01-25T16:22:48.037Z,20.70
2023-01-25T16:25:16.474Z,21.45
2023-01-25T16:27:45.559Z,21.58
2023-01-25T16:30:22.343Z,19.83
2023-01-25T16:32:53.449Z,19.75
2023-01-25T16:35:21.838Z,18.73
2023-01-25T16:37:51.091Z,19.70
2023-01-25T16:40:26.940Z,20.02
2023-01-25T16:42:56.191Z,19.60
2023-01-25T16:45:24.479Z,20.02
2023-01-25T16:47:53.563Z,20.05
2023-01-25T16:50:23.597Z,18.25
2023-01-25T16:52:53.235Z,18.27
2023-01-25T16:55:21.737Z,18.58
2023-01-25T16:57:52.052Z,19.30
2023-01-25T17:00:20.869Z,19.60
2023-01-25T17:02:58.540Z,19.98
2023-01-25T17:05:33.516Z,19.17
2023-01-25T17:08:02.190Z,17.77
2023-01-25T17:10:34.835Z,15.80
2023-01-25T17:13:03.743Z,18.30
2023-01-25T17:15:34.261Z,18.45
2023-01-25T17:18:02.947Z,19.25
2023-01-25T17:20:31.249Z,19.27
2023-01-25T17:22:59.905Z,16.73
2023-01-25T17:25:32.729Z,18.77
2023-01-25T17:28:02.077Z,19.20
2023-01-25T17:30:30.582Z,19.65
2023-01-25T17:32:59.216Z,16.90
2023-01-25T17:35:27.473Z,20.75
2023-01-25T17:37:57.423Z,19.77
2023-01-25T17:40:25.858Z,20.50
2023-01-25T17:42:54.505Z,22.73
2023-01-25T17:45:23.030Z,22.15
2023-01-25T17:47:51.705Z,23.75
2023-01-25T17:50:19.958Z,22.35
2023-01-25T17:52:48.881Z,22.95
2023-01-25T17:55:17.263Z,22.90
2023-01-25T17:57:46.545Z,21.50
2023-01-25T18:00:15.381Z,21.05
2023-01-25T18:02:45.446Z,18.92
2023-01-25T18:05:15.474Z,21.63
2023-01-25T18:07:45.236Z,20.05
2023-01-25T18:10:13.891Z,23.98
2023-01-25T18:12:43.744Z,26.25
2023-01-25T18:15:13.188Z,27.35
2023-01-25T18:17:41.875Z,26.40
2023-01-25T18:20:11.846Z,28.08
2023-01-25T18:22:41.795Z,25.48
2023-01-25T18:25:32.207Z,24.92
2023-01-25T18:28:01.115Z,25.10
2023-01-25T18:30:34.602Z,24.63
2023-01-25T18:33:04.037Z,23.83
2023-01-25T18:35:32.785Z,23.58
2023-01-25T18:38:02.032Z,26.13
2023-01-25T18:40:30.689Z,24.90
2023-01-25T18:42:59.358Z,22.08
2023-01-25T18:45:27.739Z,22.52
2023-01-25T18:47:56.423Z,24.00
2023-01-25T18:50:24.858Z,25.33
2023-01-25T18:52:56.514Z,19.10
2023-01-25T18:55:24.876Z,26.23
2023-01-25T18:57:53.840Z,24.63
2023-01-25T19:00:24.651Z,24.05
2023-01-25T19:02:53.299Z,23.17
2023-01-25T19:05:21.884Z,24.05
2023-01-25T19:07:50.490Z,21.05
2023-01-25T19:10:19.427Z,24.00
2023-01-25T19:12:48.031Z,23.25
2023-01-25T19:16:32.480Z,23.42
2023-01-25T19:19:01.218Z,24.50
2023-01-25T19:21:29.614Z,22.55
2023-01-25T19:23:58.356Z,23.38
2023-01-25T19:26:26.984Z,23.48
2023-01-25T19:29:29.689Z,22.08
2023-01-25T19:34:28.077Z,19.63
2023-01-25T19:36:57.475Z,20.38
2023-01-25T19:39:26.077Z,23.00
2023-01-25T19:41:54.784Z,22.48
2023-01-25T19:45:24.826Z,22.98
2023-01-25T19:47:26.029Z,22.77
2023-01-25T19:50:05.487Z,21.88
2023-01-25T19:52:36.636Z,20.15
2023-01-25T19:55:07.574Z,20.90
2023-01-25T19:57:37.348Z,21.48
2023-01-25T20:00:13.427Z,22.17
2023-01-25T20:02:42.224Z,21.83
2023-01-25T20:05:43.694Z,21.55
2023-01-25T20:08:51.947Z,22.02
2023-01-25T20:11:32.104Z,21.73
2023-01-25T20:14:07.560Z,23.38
2023-01-25T20:16:38.483Z,22.88
2023-01-25T20:19:23.245Z,21.65
2023-01-25T20:22:00.157Z,22.55
2023-01-25T20:24:28.920Z,20.70
2023-01-25T20:27:00.289Z,22.55
2023-01-25T20:29:29.111Z,21.92
2023-01-25T20:32:05.980Z,21.50
2023-01-25T20:34:39.272Z,22.00
2023-01-25T20:37:08.550Z,22.50
2023-01-25T20:40:00.801Z,23.42
2023-01-25T20:42:32.879Z,22.05
2023-01-25T20:45:35.707Z,22.02
2023-01-25T20:48:14.847Z,22.73
2023-01-25T20:51:17.247Z,22.48
2023-01-25T20:53:52.016Z,23.77
2023-01-25T20:57:12.533Z,26.10
2023-01-25T20:59:59.470Z,25.30
2023-01-25T21:02:41.205Z,27.48
2023-01-25T21:05:15.608Z,27.42
2023-01-25T21:07:44.072Z,26.92
2023-01-25T21:10:23.029Z,26.75
2023-01-25T21:12:51.424Z,27.52
2023-01-25T21:15:20.159Z,38.35
2023-01-25T21:17:55.148Z,32.78
2023-01-25T21:20:23.811Z,33.30
2023-01-25T21:22:52.220Z,27.40
2023-01-25T21:26:00.458Z,27.05
2023-01-25T21:28:31.651Z,24.58
2023-01-25T21:31:15.911Z,26.05
2023-01-25T21:34:18.911Z,26.20
2023-01-25T21:36:50.483Z,27.75
2023-01-25T21:39:20.183Z,28.08
2023-01-25T21:43:12.026Z,26.67
2023-01-25T21:45:38.379Z,24.95
2023-01-25T21:48:35.071Z,28.75
2023-01-25T21:54:58.824Z,23.75
2023-01-25T21:58:47.012Z,24.15
2023-01-25T22:05:01.282Z,23.58
2023-01-25T22:07:33.688Z,24.08
2023-01-25T22:10:05.545Z,23.02
2023-01-25T22:12:34.227Z,24.55
2023-01-25T22:15:09.470Z,23.77
2023-01-25T22:17:38.468Z,23.45
2023-01-25T22:20:11.416Z,24.65
2023-01-25T22:22:40.399Z,24.52
2023-01-25T22:25:10.059Z,25.25
2023-01-25T22:27:58.960Z,24.17
2023-01-25T22:30:27.700Z,23.80
2023-01-25T22:32:55.992Z,24.42
2023-01-25T22:35:27.393Z,23.00
2023-01-25T22:38:20.800Z,22.13
2023-01-25T22:40:49.419Z,23.52
2023-01-25T22:43:18.013Z,24.08
2023-01-25T22:46:06.563Z,25.42
2023-01-25T22:48:36.270Z,25.70
2023-01-25T22:51:07.476Z,22.25
2023-01-25T22:53:36.100Z,22.60
2023-01-25T22:56:18.575Z,20.90
2023-01-25T22:58:47.996Z,23.30
2023-01-25T23:01:20.073Z,22.65
2023-01-25T23:03:49.574Z,24.00
2023-01-25T23:06:20.567Z,21.83
2023-01-25T23:08:49.806Z,22.40
2023-01-25T23:11:21.799Z,21.45
2023-01-25T23:14:08.869Z,21.40
2023-01-25T23:16:37.683Z,21.13
2023-01-25T23:19:06.238Z,21.27
2023-01-25T23:21:35.877Z,21.77
2023-01-25T23:24:04.646Z,21.45
2023-01-25T23:26:39.169Z,24.15
2023-01-25T23:29:11.477Z,25.05
2023-01-25T23:31:40.076Z,22.63
2023-01-25T23:34:08.386Z,21.55
2023-01-25T23:36:38.954Z,23.33
2023-01-25T23:39:07.541Z,23.95
2023-01-25T23:41:36.043Z,24.77
2023-01-25T23:44:04.361Z,25.52
2023-01-25T23:46:32.934Z,24.50
2023-01-25T23:49:01.223Z,24.20
2023-01-25T23:51:29.774Z,23.13
2023-01-25T23:53:58.493Z,22.65
2023-01-25T23:56:27.066Z,23.30
2023-01-25T23:58:55.316Z,21.58
